»·PEaware :: N921VN L52-L88

N921VN :: L52-L88

FLIGHT INFORMATION

Flight Status: Arrived
Operator: Privately registered:
United States
More flights under this callsign
Pilot: Kevin M. (7)
Aircraft: CESSNA 172 SKYHAWK
(C172)
More flights by this aircraft type
Origin: L52 Oceano Co
United States
Destination: L88 New Cuyama
United States
More flights between these airports :: More routes between these airports
Route:
File this flight plan on PilotEdge
Remarks: cat-1
Altitude:
(Current/Filed)
7,500ft
Speed:
(Current/Filed)
150kts
Departed: 20-Oct-19 04:39 PM
Arrived: 20-Oct-19 05:04 PM
Distance/Time
Traveled:
47nm/0:25
Distance/Time
To Go:
Arrived

Flight Plot

Page will automatically refresh every two minutes.


Map Options




Map Legend


Flown Route
Filed Route
Departure Airport
Arrival Airport
Navaid (VOR, NDB)
Fix

Horizontal Profiles

Position Reports

Time Latitude Longitude Heading Altitude Ground
Speed
20-Oct-19 16:16 35.103273 -120.624321 33 18ft 0kts
20-Oct-19 16:17 35.103273 -120.624321 33 18ft 0kts
20-Oct-19 16:19 35.103273 -120.624321 33 18ft 0kts
20-Oct-19 16:19 35.103273 -120.624321 33 18ft 0kts
20-Oct-19 16:20 35.103273 -120.624321 33 18ft 0kts
20-Oct-19 16:21 35.103273 -120.624321 33 18ft 0kts
20-Oct-19 16:22 35.103273 -120.624321 33 18ft 0kts
20-Oct-19 16:23 35.103188 -120.624225 31 18ft 0kts
20-Oct-19 16:24 35.103188 -120.624225 31 18ft 0kts
20-Oct-19 16:25 35.103188 -120.624225 31 18ft 0kts
20-Oct-19 16:26 35.103188 -120.624225 31 18ft 0kts
20-Oct-19 16:27 35.103188 -120.624225 31 18ft 0kts
20-Oct-19 16:28 35.103188 -120.624225 31 18ft 0kts
20-Oct-19 16:29 35.103188 -120.624225 31 18ft 0kts
20-Oct-19 16:30 35.103189 -120.624225 31 18ft 0kts
20-Oct-19 16:31 35.103189 -120.624225 31 18ft 0kts
20-Oct-19 16:32 35.103194 -120.624221 33 18ft 0kts
20-Oct-19 16:33 35.103525 -120.625250 231 18ft 0kts
20-Oct-19 16:34 35.103525 -120.625250 231 18ft 0kts
20-Oct-19 16:35 35.103525 -120.625250 231 18ft 0kts
20-Oct-19 16:36 35.103525 -120.625250 231 18ft 0kts
20-Oct-19 16:37 35.103532 -120.625253 202 18ft 2kts
20-Oct-19 16:38 35.094313 -120.611094 134 574ft 75kts
20-Oct-19 16:39 35.087443 -120.591232 98 906ft 63kts
20-Oct-19 16:40 35.083459 -120.568150 103 1711ft 75kts
20-Oct-19 16:41 35.079045 -120.541766 100 2516ft 91kts
20-Oct-19 16:42 35.073761 -120.507275 100 3034ft 109kts
20-Oct-19 16:43 35.068084 -120.470320 100 3536ft 111kts
20-Oct-19 16:44 35.062407 -120.433333 100 4037ft 110kts
20-Oct-19 16:45 35.056816 -120.396862 100 4535ft 109kts
20-Oct-19 16:46 35.051267 -120.360615 100 5035ft 108kts
20-Oct-19 16:47 35.045756 -120.324556 100 5536ft 107kts
20-Oct-19 16:48 35.040337 -120.289042 100 6035ft 106kts
20-Oct-19 16:49 35.034992 -120.253939 100 6534ft 104kts
20-Oct-19 16:50 35.028929 -120.214218 100 6452ft 127kts
20-Oct-19 16:51 35.022991 -120.175268 100 6883ft 108kts
20-Oct-19 16:52 35.017678 -120.140253 100 7379ft 102kts
20-Oct-19 16:53 35.011956 -120.102562 100 7464ft 122kts
20-Oct-19 16:54 35.005664 -120.061201 100 7463ft 124kts
20-Oct-19 16:55 34.999352 -120.019670 100 7462ft 124kts
20-Oct-19 16:56 34.993057 -119.978200 100 7462ft 124kts
20-Oct-19 16:57 34.986763 -119.936659 100 7462ft 124kts
20-Oct-19 16:58 34.980463 -119.895018 100 7463ft 124kts
20-Oct-19 16:59 34.973750 -119.850624 100 6924ft 145kts
20-Oct-19 17:00 34.968247 -119.800784 88 5776ft 158kts
20-Oct-19 17:01 34.969235 -119.751254 118 4098ft 136kts
20-Oct-19 17:02 34.951160 -119.711760 118 2679ft 125kts
20-Oct-19 17:03 34.939246 -119.683829 109 2187ft 34kts
20-Oct-19 17:04 34.939971 -119.684899 299 2180ft 19kts
20-Oct-19 17:05 34.941987 -119.689154 290 2157ft 14kts
20-Oct-19 17:06 34.942830 -119.690873 292 2153ft 5kts
20-Oct-19 17:07 34.942904 -119.691088 292 2153ft 0kts
20-Oct-19 17:08 34.942904 -119.691088 291 2153ft 0kts
20-Oct-19 17:09 34.942904 -119.691088 291 2153ft 0kts
20-Oct-19 17:10 34.942904 -119.691088 291 2153ft 0kts
20-Oct-19 17:11 34.942904 -119.691088 291 2153ft 0kts
20-Oct-19 17:12 34.942904 -119.691088 291 2153ft 0kts
20-Oct-19 17:13 34.942904 -119.691088 291 2153ft 0kts
20-Oct-19 17:14 34.942904 -119.691088 291 2153ft 0kts
20-Oct-19 17:15 34.942904 -119.691088 291 2153ft 0kts

Navigation Log

Ident Type
Flight plan parsing failed, navigation log unavailable